createdAt,value
2023-02-23T00:48:10.815Z,13.13
2023-02-23T00:50:59.713Z,14.10
2023-02-23T00:53:45.478Z,13.73
2023-02-23T00:56:31.157Z,12.90
2023-02-23T00:59:16.806Z,12.17
2023-02-23T01:47:45.783Z,9.73
2023-02-23T01:50:38.894Z,9.45
2023-02-23T01:53:26.922Z,11.52
2023-02-23T01:56:18.633Z,10.25
2023-02-23T01:59:07.955Z,11.38
2023-02-23T02:48:22.313Z,8.68
2023-02-23T02:51:12.148Z,9.03
2023-02-23T02:54:16.185Z,9.63
2023-02-23T02:57:04.363Z,10.25
2023-02-23T03:47:19.375Z,8.27
2023-02-23T03:50:29.839Z,8.90
2023-02-23T03:53:38.098Z,7.30
2023-02-23T03:56:45.769Z,8.93
2023-02-23T03:59:55.474Z,7.82
2023-02-23T04:48:32.139Z,7.82
2023-02-23T04:51:19.221Z,10.85
2023-02-23T04:54:05.328Z,8.27
2023-02-23T04:56:50.623Z,7.40
2023-02-23T04:59:35.824Z,7.20
2023-02-23T05:48:04.036Z,8.10
2023-02-23T05:50:49.584Z,8.18
2023-02-23T05:53:35.645Z,8.88
2023-02-23T05:56:21.283Z,7.22
2023-02-23T05:59:06.780Z,9.83
2023-02-23T06:01:51.979Z,7.53
2023-02-23T06:04:37.358Z,9.30
2023-02-23T06:07:22.659Z,8.10
2023-02-23T06:10:08.288Z,8.13
2023-02-23T06:12:54.050Z,8.80
2023-02-23T06:15:39.508Z,7.57
2023-02-23T06:18:25.571Z,8.65
2023-02-23T06:21:10.671Z,8.15
2023-02-23T06:23:57.224Z,8.63
2023-02-23T06:26:44.453Z,9.07
2023-02-23T06:29:29.863Z,9.05
2023-02-23T06:32:15.300Z,9.73
2023-02-23T06:35:06.938Z,8.43
2023-02-23T06:37:51.903Z,8.60
2023-02-23T06:40:38.204Z,6.83
2023-02-23T06:43:23.601Z,8.63
2023-02-23T06:46:08.813Z,18.58
2023-02-23T06:48:59.700Z,21.23
2023-02-23T06:51:45.200Z,21.25
2023-02-23T06:54:30.770Z,21.40
2023-02-23T06:57:16.443Z,21.50
2023-02-23T07:00:02.034Z,19.60
2023-02-23T07:02:47.297Z,17.40
2023-02-23T07:05:32.603Z,18.60
2023-02-23T07:08:18.388Z,17.93
2023-02-23T07:11:13.357Z,15.65
2023-02-23T07:13:59.686Z,15.57
2023-02-23T07:16:45.119Z,18.55
2023-02-23T07:19:32.148Z,16.55
2023-02-23T07:22:17.704Z,14.10
2023-02-23T07:25:04.522Z,18.58
2023-02-23T07:27:49.793Z,15.65
2023-02-23T07:30:35.226Z,14.38
2023-02-23T07:33:20.436Z,18.60
2023-02-23T07:36:06.076Z,18.57
2023-02-23T07:38:51.121Z,16.30
2023-02-23T07:41:36.593Z,14.45
2023-02-23T07:44:21.877Z,16.23
2023-02-23T07:47:07.352Z,14.07
2023-02-23T07:49:52.687Z,15.17
2023-02-23T07:52:39.662Z,16.10
2023-02-23T07:55:24.918Z,14.48
2023-02-23T07:58:10.183Z,12.43
2023-02-23T08:00:55.556Z,13.15
2023-02-23T08:03:40.857Z,14.03
2023-02-23T08:06:26.345Z,11.60
2023-02-23T08:09:12.086Z,13.23
2023-02-23T08:11:57.392Z,12.88
2023-02-23T08:14:43.117Z,13.65
2023-02-23T08:17:28.438Z,13.63
2023-02-23T08:20:13.758Z,12.63
2023-02-23T08:22:59.614Z,11.35
2023-02-23T08:25:45.020Z,10.10
2023-02-23T08:28:30.672Z,12.95
2023-02-23T08:31:18.690Z,11.40
2023-02-23T08:34:04.222Z,11.45
2023-02-23T08:36:49.911Z,12.65
2023-02-23T08:39:35.371Z,11.88
2023-02-23T08:42:20.288Z,11.68
2023-02-23T08:45:08.398Z,10.70
2023-02-23T08:47:54.991Z,12.95
2023-02-23T08:50:40.288Z,14.70
2023-02-23T08:53:27.131Z,12.05
2023-02-23T08:56:13.272Z,11.55
2023-02-23T08:58:58.394Z,11.03
2023-02-23T09:01:43.451Z,12.52
2023-02-23T09:04:32.616Z,10.57
2023-02-23T09:07:17.860Z,13.23
2023-02-23T09:10:03.506Z,10.73
2023-02-23T09:12:48.491Z,12.67
2023-02-23T09:15:33.938Z,11.15
2023-02-23T09:18:19.367Z,12.00
2023-02-23T09:21:10.762Z,10.23
2023-02-23T09:23:56.857Z,11.32
2023-02-23T09:26:43.550Z,12.57
2023-02-23T09:29:32.008Z,10.93
2023-02-23T09:32:16.947Z,10.02
2023-02-23T09:35:02.325Z,10.75
2023-02-23T09:37:51.665Z,10.48
2023-02-23T09:40:46.063Z,11.73
2023-02-23T09:43:42.437Z,11.43
2023-02-23T09:46:34.802Z,12.38
2023-02-23T09:49:22.993Z,11.25
2023-02-23T09:52:17.963Z,10.90
2023-02-23T09:55:04.352Z,10.13
2023-02-23T09:57:50.928Z,9.55
2023-02-23T10:00:42.811Z,10.65
2023-02-23T10:03:34.738Z,10.88
2023-02-23T10:06:21.118Z,12.05
2023-02-23T10:09:27.757Z,10.47
2023-02-23T10:12:27.630Z,13.23
2023-02-23T10:15:38.777Z,12.68
2023-02-23T10:19:01.728Z,11.52
2023-02-23T10:21:55.971Z,11.13
2023-02-23T10:24:51.896Z,10.67
2023-02-23T10:27:41.990Z,10.57
2023-02-23T10:30:33.733Z,11.18
2023-02-23T10:33:40.883Z,14.02
2023-02-23T10:36:29.292Z,11.85
2023-02-23T10:39:14.703Z,12.23
2023-02-23T10:42:05.981Z,10.57
2023-02-23T10:44:51.598Z,11.10
2023-02-23T10:47:37.691Z,12.20
2023-02-23T10:50:27.528Z,9.60
2023-02-23T10:53:18.375Z,10.70
2023-02-23T10:56:13.792Z,12.40
2023-02-23T10:58:59.497Z,9.38
2023-02-23T11:02:00.507Z,13.73
2023-02-23T11:04:56.776Z,13.20
2023-02-23T11:07:43.380Z,14.13
2023-02-23T11:10:29.226Z,15.38
2023-02-23T11:13:27.461Z,16.92
2023-02-23T11:16:18.148Z,16.73
2023-02-23T11:19:05.455Z,17.50
2023-02-23T11:21:52.681Z,18.33
2023-02-23T11:24:41.402Z,20.70
2023-02-23T11:27:27.734Z,20.75
2023-02-23T11:30:14.042Z,20.65
2023-02-23T11:33:10.792Z,23.45
2023-02-23T11:36:01.122Z,22.90
2023-02-23T11:38:47.698Z,23.15
2023-02-23T11:41:35.351Z,23.15
2023-02-23T11:44:24.111Z,23.60
2023-02-23T11:47:18.890Z,26.85
2023-02-23T11:50:06.241Z,19.57
2023-02-23T11:53:15.430Z,20.50
2023-02-23T11:56:08.076Z,18.33
2023-02-23T11:58:59.383Z,20.98
2023-02-23T12:01:51.200Z,21.70
2023-02-23T12:04:40.604Z,20.27
2023-02-23T12:07:41.813Z,20.77
2023-02-23T12:10:41.964Z,23.25
2023-02-23T12:13:45.817Z,20.38
2023-02-23T12:16:47.767Z,24.48
2023-02-23T12:19:44.116Z,23.87
2023-02-23T12:22:35.608Z,22.58
2023-02-23T12:25:27.570Z,22.80
2023-02-23T12:28:36.070Z,22.60
2023-02-23T12:31:47.996Z,17.75
2023-02-23T12:34:47.533Z,16.30
2023-02-23T12:37:41.180Z,17.25
2023-02-23T12:40:30.004Z,16.98
2023-02-23T12:43:27.087Z,19.83
2023-02-23T12:46:20.711Z,18.63
2023-02-23T12:49:08.805Z,19.30
2023-02-23T12:52:14.767Z,19.35
2023-02-23T12:55:00.843Z,19.25
2023-02-23T12:57:51.899Z,20.05
2023-02-23T13:00:52.982Z,19.20
2023-02-23T13:03:55.190Z,20.47
2023-02-23T13:07:10.684Z,18.35
2023-02-23T13:10:05.918Z,17.90
2023-02-23T13:12:54.506Z,20.98
2023-02-23T13:15:45.602Z,18.50
2023-02-23T13:18:49.496Z,16.27
2023-02-23T13:21:39.864Z,18.10
2023-02-23T13:24:29.852Z,17.48
2023-02-23T13:27:24.503Z,16.85
2023-02-23T13:30:11.400Z,17.23
2023-02-23T13:32:58.146Z,17.23
2023-02-23T13:35:43.453Z,17.08
2023-02-23T13:38:42.099Z,17.83
2023-02-23T13:41:37.701Z,17.77
2023-02-23T13:44:45.015Z,14.88
2023-02-23T13:47:45.440Z,15.63
2023-02-23T13:50:46.567Z,17.20
2023-02-23T13:53:44.308Z,13.90
2023-02-23T13:56:34.498Z,13.10
2023-02-23T13:59:23.044Z,14.75
2023-02-23T14:02:34.459Z,13.30
2023-02-23T14:05:25.010Z,11.50
2023-02-23T14:08:24.015Z,13.57
2023-02-23T14:11:09.766Z,14.00
2023-02-23T14:14:01.324Z,11.93
2023-02-23T14:17:15.449Z,13.57
2023-02-23T14:20:20.966Z,12.00
2023-02-23T14:23:14.625Z,17.42
2023-02-23T14:26:29.359Z,14.88
2023-02-23T14:29:25.538Z,14.85
2023-02-23T14:32:11.316Z,16.53
2023-02-23T14:35:01.583Z,13.48
2023-02-23T14:37:56.417Z,12.68
2023-02-23T14:40:46.530Z,13.05
2023-02-23T14:43:44.151Z,13.18
2023-02-23T14:46:29.604Z,13.43
2023-02-23T14:49:22.747Z,11.25
2023-02-23T14:52:18.754Z,12.38
2023-02-23T14:55:22.857Z,11.38
2023-02-23T14:58:27.213Z,13.13
2023-02-23T15:01:12.532Z,12.27
2023-02-23T15:04:14.648Z,12.00
2023-02-23T15:07:01.540Z,12.32
2023-02-23T15:09:47.224Z,11.38
2023-02-23T15:12:37.861Z,11.13
2023-02-23T15:15:26.427Z,13.07
2023-02-23T15:18:22.132Z,11.63
2023-02-23T15:21:11.924Z,12.55
2023-02-23T15:24:07.625Z,10.57
2023-02-23T15:26:54.024Z,11.48
2023-02-23T15:29:39.148Z,11.53
2023-02-23T15:32:26.240Z,12.75
2023-02-23T15:35:12.975Z,11.93
2023-02-23T15:38:11.466Z,14.32
2023-02-23T15:41:04.314Z,12.40
2023-02-23T15:43:49.903Z,16.43
2023-02-23T15:46:37.783Z,12.70
2023-02-23T15:49:27.558Z,12.13
2023-02-23T15:52:19.350Z,11.63
2023-02-23T15:55:10.065Z,12.32
2023-02-23T15:57:59.197Z,10.67
2023-02-23T16:00:51.440Z,11.73
2023-02-23T16:03:44.146Z,13.25
2023-02-23T16:06:34.682Z,10.57
2023-02-23T16:09:26.394Z,10.57
2023-02-23T16:12:17.360Z,11.83
2023-02-23T16:15:06.465Z,11.65
2023-02-23T16:17:59.526Z,12.20
2023-02-23T16:20:59.008Z,11.73
2023-02-23T16:23:47.710Z,11.90
2023-02-23T16:26:44.370Z,11.63
2023-02-23T16:29:41.579Z,11.07
2023-02-23T16:32:44.336Z,11.23
2023-02-23T16:35:37.320Z,12.95
2023-02-23T16:38:26.042Z,12.35
2023-02-23T16:41:19.353Z,11.37
2023-02-23T16:44:06.712Z,11.00
2023-02-23T16:47:01.526Z,13.27
2023-02-23T16:49:46.786Z,11.45
2023-02-23T16:52:32.583Z,10.13
2023-02-23T16:55:25.983Z,10.93
2023-02-23T16:58:17.688Z,12.80
2023-02-23T17:01:03.049Z,12.35
2023-02-23T17:03:53.173Z,10.85
2023-02-23T17:06:39.105Z,13.60
2023-02-23T17:09:25.109Z,12.97
2023-02-23T17:12:21.821Z,14.23
2023-02-23T17:15:16.828Z,9.60
2023-02-23T17:18:02.029Z,10.43
2023-02-23T17:20:47.710Z,15.07
2023-02-23T17:23:40.384Z,10.43
2023-02-23T17:26:26.017Z,10.20
2023-02-23T17:29:11.576Z,11.25
2023-02-23T17:31:59.842Z,12.45
2023-02-23T17:34:45.428Z,11.43
2023-02-23T17:37:31.169Z,12.20
2023-02-23T17:40:29.417Z,10.32
2023-02-23T17:43:14.861Z,10.93
2023-02-23T17:46:00.304Z,10.43
2023-02-23T17:48:47.260Z,9.70
2023-02-23T17:51:32.427Z,10.93
2023-02-23T17:54:17.505Z,14.25
2023-02-23T17:57:03.367Z,11.25
2023-02-23T17:59:48.612Z,11.95
2023-02-23T18:02:33.837Z,10.15
2023-02-23T18:05:19.042Z,9.33
2023-02-23T18:08:04.326Z,8.95
2023-02-23T18:10:51.557Z,7.82
2023-02-23T18:13:37.355Z,10.90
2023-02-23T18:16:24.377Z,16.17
2023-02-23T18:19:09.812Z,12.23
2023-02-23T18:21:56.125Z,13.25
2023-02-23T18:24:42.392Z,10.23
2023-02-23T18:27:27.629Z,11.18
2023-02-23T18:30:13.941Z,11.32
2023-02-23T18:33:00.589Z,12.83
2023-02-23T18:35:46.044Z,14.70
2023-02-23T18:38:31.509Z,12.55
2023-02-23T18:41:17.115Z,13.93
2023-02-23T18:44:05.172Z,11.77
2023-02-23T18:46:50.506Z,10.37
2023-02-23T18:49:36.909Z,10.93
2023-02-23T18:52:22.084Z,10.98
2023-02-23T18:55:08.572Z,11.93
2023-02-23T18:57:53.970Z,11.68
2023-02-23T19:00:42.762Z,10.43
2023-02-23T19:03:28.254Z,11.25
2023-02-23T19:06:15.986Z,11.60
2023-02-23T19:09:04.024Z,11.73
2023-02-23T19:11:50.632Z,10.75
2023-02-23T19:14:48.867Z,10.90
2023-02-23T19:17:36.346Z,11.75
2023-02-23T19:20:23.020Z,11.38
2023-02-23T19:23:09.958Z,9.32
2023-02-23T19:25:55.451Z,10.88
2023-02-23T19:28:40.820Z,10.20
2023-02-23T19:31:27.195Z,9.93
2023-02-23T19:34:12.819Z,13.10
2023-02-23T19:36:57.589Z,10.77
2023-02-23T19:39:42.465Z,12.38
2023-02-23T19:42:27.496Z,12.27
2023-02-23T19:45:14.090Z,11.00
2023-02-23T19:47:59.341Z,10.50
2023-02-23T19:50:48.228Z,10.77
2023-02-23T19:53:33.802Z,10.07
2023-02-23T19:56:18.969Z,13.03
2023-02-23T19:59:05.549Z,8.75
2023-02-23T20:01:51.342Z,14.07
2023-02-23T20:04:36.526Z,9.60
2023-02-23T20:07:22.365Z,11.40
2023-02-23T20:10:10.195Z,11.57
2023-02-23T20:12:55.842Z,11.05
2023-02-23T20:15:41.125Z,9.45
2023-02-23T20:18:28.343Z,10.55
2023-02-23T20:21:17.119Z,9.55
2023-02-23T20:24:03.687Z,10.97
2023-02-23T20:26:52.279Z,11.30
2023-02-23T20:29:38.007Z,8.82
2023-02-23T20:32:23.306Z,11.23
2023-02-23T20:35:11.345Z,10.15
2023-02-23T20:37:56.522Z,10.10
2023-02-23T20:40:42.080Z,10.48
2023-02-23T20:43:27.363Z,11.50
2023-02-23T20:46:14.156Z,14.60
2023-02-23T20:48:59.648Z,11.25
2023-02-23T20:51:46.833Z,11.03
2023-02-23T20:54:33.630Z,8.90
2023-02-23T20:57:18.994Z,10.50
2023-02-23T21:00:11.367Z,10.48
2023-02-23T21:02:56.912Z,12.57
2023-02-23T21:05:42.636Z,9.10
2023-02-23T21:08:28.832Z,9.57
2023-02-23T21:11:15.910Z,12.25
2023-02-23T21:14:01.479Z,9.45
2023-02-23T21:16:46.852Z,11.48
2023-02-23T21:19:32.234Z,8.37
2023-02-23T21:22:17.899Z,12.20
2023-02-23T21:25:04.424Z,12.07
2023-02-23T21:27:50.878Z,11.43
2023-02-23T21:30:35.824Z,10.82
2023-02-23T21:33:21.190Z,9.53
2023-02-23T21:36:10.413Z,8.18
2023-02-23T21:38:55.887Z,10.70
2023-02-23T21:41:41.233Z,8.77
2023-02-23T21:44:26.668Z,8.13
2023-02-23T21:47:15.496Z,9.63
2023-02-23T21:50:00.733Z,9.50
2023-02-23T21:52:48.488Z,10.38
2023-02-23T21:55:35.876Z,9.43
2023-02-23T21:58:21.275Z,9.90
2023-02-23T22:01:20.989Z,10.03
2023-02-23T22:04:09.398Z,8.95
2023-02-23T22:06:54.412Z,8.20
2023-02-23T22:09:40.047Z,10.50
2023-02-23T22:12:30.612Z,8.77
2023-02-23T22:15:16.390Z,7.67
2023-02-23T22:18:02.618Z,10.25
2023-02-23T22:20:56.266Z,8.90
2023-02-23T22:23:43.834Z,9.25
2023-02-23T22:26:30.524Z,9.90
2023-02-23T22:29:16.768Z,11.67
2023-02-23T22:32:02.503Z,10.52
2023-02-23T22:34:48.162Z,10.50
2023-02-23T22:37:33.632Z,9.35
2023-02-23T22:40:18.893Z,7.82
2023-02-23T22:43:06.254Z,9.60
2023-02-23T22:45:55.701Z,9.52
2023-02-23T22:48:45.204Z,10.02
2023-02-23T22:51:30.597Z,9.10
2023-02-23T22:54:17.242Z,9.35
2023-02-23T22:57:02.357Z,9.13
2023-02-23T22:59:54.518Z,7.82
2023-02-23T23:02:40.590Z,9.18
2023-02-23T23:05:25.845Z,10.23
2023-02-23T23:08:11.414Z,7.80
2023-02-23T23:11:03.942Z,9.97
2023-02-23T23:13:51.855Z,9.20
2023-02-23T23:16:47.574Z,9.27
2023-02-23T23:19:38.901Z,13.30
2023-02-23T23:22:25.190Z,8.50
2023-02-23T23:25:16.202Z,9.20
2023-02-23T23:28:01.710Z,9.38
2023-02-23T23:30:47.324Z,9.55
2023-02-23T23:33:32.759Z,10.48
2023-02-23T23:36:22.214Z,8.95
2023-02-23T23:39:07.685Z,9.93
2023-02-23T23:41:54.145Z,7.85
2023-02-23T23:44:39.607Z,7.72
2023-02-23T23:47:26.205Z,9.63
2023-02-23T23:50:16.455Z,8.65
2023-02-23T23:53:05.190Z,8.03
2023-02-23T23:55:51.255Z,8.70
2023-02-23T23:58:38.651Z,9.68
